sensor_id;sensor_type;location;lat;lon;timestamp;temperature;humidity
12452;DHT22;6291;48.924;12.204;2022-09-25T00:03:47;12.40;99.90
12452;DHT22;6291;48.924;12.204;2022-09-25T00:08:51;12.30;99.90
12452;DHT22;6291;48.924;12.204;2022-09-25T00:13:55;12.30;99.90
12452;DHT22;6291;48.924;12.204;2022-09-25T00:19:01;12.40;99.90
12452;DHT22;6291;48.924;12.204;2022-09-25T00:24:22;12.40;99.90
12452;DHT22;6291;48.924;12.204;2022-09-25T00:29:25;12.40;99.90
12452;DHT22;6291;48.924;12.204;2022-09-25T00:34:30;12.40;99.90
12452;DHT22;6291;48.924;12.204;2022-09-25T00:39:33;12.50;99.90
12452;DHT22;6291;48.924;12.204;2022-09-25T00:44:52;12.40;99.90
12452;DHT22;6291;48.924;12.204;2022-09-25T00:50:01;12.40;99.90
12452;DHT22;6291;48.924;12.204;2022-09-25T00:55:06;12.30;99.90
12452;DHT22;6291;48.924;12.204;2022-09-25T01:00:14;12.30;99.90
12452;DHT22;6291;48.924;12.204;2022-09-25T01:05:21;12.30;99.90
12452;DHT22;6291;48.924;12.204;2022-09-25T01:10:25;12.40;99.90
12452;DHT22;6291;48.924;12.204;2022-09-25T01:15:37;12.30;99.90
12452;DHT22;6291;48.924;12.204;2022-09-25T01:21:14;12.30;99.90
12452;DHT22;6291;48.924;12.204;2022-09-25T01:26:35;12.10;99.90
12452;DHT22;6291;48.924;12.204;2022-09-25T01:31:55;12.10;99.90
12452;DHT22;6291;48.924;12.204;2022-09-25T01:37:09;12.00;99.90
12452;DHT22;6291;48.924;12.204;2022-09-25T01:42:19;12.00;99.90
12452;DHT22;6291;48.924;12.204;2022-09-25T01:47:26;11.90;99.90
12452;DHT22;6291;48.924;12.204;2022-09-25T01:52:34;11.80;99.90
12452;DHT22;6291;48.924;12.204;2022-09-25T01:57:41;11.90;99.90
12452;DHT22;6291;48.924;12.204;2022-09-25T02:02:51;12.00;99.90
12452;DHT22;6291;48.924;12.204;2022-09-25T02:08:00;12.10;99.90
12452;DHT22;6291;48.924;12.204;2022-09-25T02:13:08;12.10;99.90
12452;DHT22;6291;48.924;12.204;2022-09-25T02:18:16;12.10;99.90
12452;DHT22;6291;48.924;12.204;2022-09-25T02:23:45;12.20;99.90
12452;DHT22;6291;48.924;12.204;2022-09-25T02:28:50;12.20;99.90
12452;DHT22;6291;48.924;12.204;2022-09-25T02:33:57;12.10;99.90
12452;DHT22;6291;48.924;12.204;2022-09-25T02:39:02;12.20;99.90
12452;DHT22;6291;48.924;12.204;2022-09-25T02:44:11;11.90;99.90
12452;DHT22;6291;48.924;12.204;2022-09-25T02:49:24;11.80;99.90
12452;DHT22;6291;48.924;12.204;2022-09-25T02:54:33;11.90;99.90
12452;DHT22;6291;48.924;12.204;2022-09-25T02:59:44;11.80;99.90
12452;DHT22;6291;48.924;12.204;2022-09-25T03:04:53;11.90;99.90
12452;DHT22;6291;48.924;12.204;2022-09-25T03:09:58;11.80;99.90
12452;DHT22;6291;48.924;12.204;2022-09-25T03:15:01;11.80;99.90
12452;DHT22;6291;48.924;12.204;2022-09-25T03:20:07;11.80;99.90
12452;DHT22;6291;48.924;12.204;2022-09-25T03:25:10;11.90;99.90
12452;DHT22;6291;48.924;12.204;2022-09-25T03:30:14;11.80;99.90
12452;DHT22;6291;48.924;12.204;2022-09-25T03:35:18;11.80;99.90
12452;DHT22;6291;48.924;12.204;2022-09-25T03:40:22;11.80;99.90
12452;DHT22;6291;48.924;12.204;2022-09-25T03:45:25;11.80;99.90
12452;DHT22;6291;48.924;12.204;2022-09-25T03:50:30;11.70;99.90
12452;DHT22;6291;48.924;12.204;2022-09-25T03:55:33;11.70;99.90
12452;DHT22;6291;48.924;12.204;2022-09-25T04:00:37;11.80;99.90
12452;DHT22;6291;48.924;12.204;2022-09-25T04:05:41;11.80;99.90
12452;DHT22;6291;48.924;12.204;2022-09-25T04:10:47;11.80;99.90
12452;DHT22;6291;48.924;12.204;2022-09-25T04:15:50;11.80;99.90
12452;DHT22;6291;48.924;12.204;2022-09-25T04:20:55;11.80;99.90
12452;DHT22;6291;48.924;12.204;2022-09-25T04:25:58;11.90;99.90
12452;DHT22;6291;48.924;12.204;2022-09-25T04:31:01;12.00;99.90
12452;DHT22;6291;48.924;12.204;2022-09-25T04:36:07;12.00;99.90
12452;DHT22;6291;48.924;12.204;2022-09-25T04:41:10;8.00;99.90
12452;DHT22;6291;48.924;12.204;2022-09-25T04:46:14;9.10;99.90
12452;DHT22;6291;48.924;12.204;2022-09-25T04:51:24;12.00;99.90
12452;DHT22;6291;48.924;12.204;2022-09-25T04:56:28;12.00;99.90
12452;DHT22;6291;48.924;12.204;2022-09-25T05:01:31;12.00;99.90
12452;DHT22;6291;48.924;12.204;2022-09-25T05:06:36;12.10;99.90
12452;DHT22;6291;48.924;12.204;2022-09-25T05:11:39;12.20;99.90
12452;DHT22;6291;48.924;12.204;2022-09-25T05:16:42;12.20;99.90
12452;DHT22;6291;48.924;12.204;2022-09-25T05:21:48;12.10;99.90
12452;DHT22;6291;48.924;12.204;2022-09-25T05:26:55;12.10;99.90
12452;DHT22;6291;48.924;12.204;2022-09-25T05:31:58;12.10;99.90
12452;DHT22;6291;48.924;12.204;2022-09-25T05:37:03;12.20;99.90
12452;DHT22;6291;48.924;12.204;2022-09-25T05:42:07;12.20;99.90
12452;DHT22;6291;48.924;12.204;2022-09-25T05:47:10;12.20;99.90
12452;DHT22;6291;48.924;12.204;2022-09-25T05:52:14;12.20;99.90
12452;DHT22;6291;48.924;12.204;2022-09-25T05:57:17;12.30;99.90
12452;DHT22;6291;48.924;12.204;2022-09-25T06:02:21;12.30;99.90
12452;DHT22;6291;48.924;12.204;2022-09-25T06:07:25;12.40;99.90
12452;DHT22;6291;48.924;12.204;2022-09-25T06:12:29;12.40;99.90
12452;DHT22;6291;48.924;12.204;2022-09-25T06:17:32;12.50;99.90
12452;DHT22;6291;48.924;12.204;2022-09-25T06:22:37;12.60;99.90
12452;DHT22;6291;48.924;12.204;2022-09-25T06:27:40;13.00;99.90
12452;DHT22;6291;48.924;12.204;2022-09-25T06:32:44;13.20;99.90
12452;DHT22;6291;48.924;12.204;2022-09-25T06:37:49;13.10;99.90
12452;DHT22;6291;48.924;12.204;2022-09-25T06:42:54;13.10;99.90
12452;DHT22;6291;48.924;12.204;2022-09-25T06:48:02;13.10;99.90
12452;DHT22;6291;48.924;12.204;2022-09-25T06:53:07;14.00;99.90
12452;DHT22;6291;48.924;12.204;2022-09-25T06:58:13;13.00;99.90
12452;DHT22;6291;48.924;12.204;2022-09-25T07:03:18;12.90;99.90
12452;DHT22;6291;48.924;12.204;2022-09-25T07:08:40;12.80;99.90
12452;DHT22;6291;48.924;12.204;2022-09-25T07:13:44;12.80;99.90
12452;DHT22;6291;48.924;12.204;2022-09-25T07:18:48;13.10;99.90
12452;DHT22;6291;48.924;12.204;2022-09-25T07:23:53;13.10;99.90
12452;DHT22;6291;48.924;12.204;2022-09-25T07:28:58;13.00;99.90
12452;DHT22;6291;48.924;12.204;2022-09-25T07:34:02;13.00;99.90
12452;DHT22;6291;48.924;12.204;2022-09-25T07:39:11;13.10;99.90
12452;DHT22;6291;48.924;12.204;2022-09-25T07:44:19;13.20;99.90
12452;DHT22;6291;48.924;12.204;2022-09-25T07:49:32;13.50;99.90
12452;DHT22;6291;48.924;12.204;2022-09-25T07:54:37;13.30;99.90
12452;DHT22;6291;48.924;12.204;2022-09-25T07:59:40;14.20;99.90
12452;DHT22;6291;48.924;12.204;2022-09-25T08:04:44;13.00;99.90
12452;DHT22;6291;48.924;12.204;2022-09-25T08:09:48;12.90;99.90
12452;DHT22;6291;48.924;12.204;2022-09-25T08:14:52;13.10;99.90
12452;DHT22;6291;48.924;12.204;2022-09-25T08:19:55;13.20;99.90
12452;DHT22;6291;48.924;12.204;2022-09-25T08:25:00;13.20;99.90
12452;DHT22;6291;48.924;12.204;2022-09-25T08:30:05;13.50;99.90
12452;DHT22;6291;48.924;12.204;2022-09-25T08:35:08;13.40;99.90
12452;DHT22;6291;48.924;12.204;2022-09-25T08:40:17;13.30;99.90
12452;DHT22;6291;48.924;12.204;2022-09-25T08:45:26;13.50;99.90
12452;DHT22;6291;48.924;12.204;2022-09-25T08:50:48;13.80;99.90
12452;DHT22;6291;48.924;12.204;2022-09-25T08:55:53;14.20;99.90
12452;DHT22;6291;48.924;12.204;2022-09-25T09:01:16;15.10;99.90
12452;DHT22;6291;48.924;12.204;2022-09-25T09:06:23;15.00;99.90
12452;DHT22;6291;48.924;12.204;2022-09-25T09:11:34;15.20;99.90
12452;DHT22;6291;48.924;12.204;2022-09-25T09:16:41;14.80;99.90
12452;DHT22;6291;48.924;12.204;2022-09-25T09:21:50;15.20;99.90
12452;DHT22;6291;48.924;12.204;2022-09-25T09:27:13;14.70;99.90
12452;DHT22;6291;48.924;12.204;2022-09-25T09:33:00;14.10;99.90
12452;DHT22;6291;48.924;12.204;2022-09-25T09:38:15;13.90;99.90
12452;DHT22;6291;48.924;12.204;2022-09-25T09:43:31;13.50;99.90
12452;DHT22;6291;48.924;12.204;2022-09-25T09:48:44;13.50;99.90
12452;DHT22;6291;48.924;12.204;2022-09-25T09:53:53;13.60;99.90
12452;DHT22;6291;48.924;12.204;2022-09-25T09:59:02;14.30;99.90
12452;DHT22;6291;48.924;12.204;2022-09-25T10:04:08;14.90;99.90
12452;DHT22;6291;48.924;12.204;2022-09-25T10:09:14;15.80;99.90
12452;DHT22;6291;48.924;12.204;2022-09-25T10:14:21;15.70;99.90
12452;DHT22;6291;48.924;12.204;2022-09-25T10:19:35;15.60;99.90
12452;DHT22;6291;48.924;12.204;2022-09-25T10:24:50;16.00;99.90
12452;DHT22;6291;48.924;12.204;2022-09-25T10:30:14;15.00;99.90
12452;DHT22;6291;48.924;12.204;2022-09-25T10:35:23;15.00;99.90
12452;DHT22;6291;48.924;12.204;2022-09-25T10:40:29;14.90;99.90
12452;DHT22;6291;48.924;12.204;2022-09-25T10:45:36;14.60;99.90
12452;DHT22;6291;48.924;12.204;2022-09-25T10:50:42;14.40;99.90
12452;DHT22;6291;48.924;12.204;2022-09-25T10:55:50;14.40;99.90
12452;DHT22;6291;48.924;12.204;2022-09-25T11:00:59;14.50;99.90
12452;DHT22;6291;48.924;12.204;2022-09-25T11:06:05;14.50;99.90
12452;DHT22;6291;48.924;12.204;2022-09-25T11:11:09;16.20;99.90
12452;DHT22;6291;48.924;12.204;2022-09-25T11:16:14;14.60;99.90
12452;DHT22;6291;48.924;12.204;2022-09-25T11:21:21;14.60;99.90
12452;DHT22;6291;48.924;12.204;2022-09-25T11:26:29;14.40;99.90
12452;DHT22;6291;48.924;12.204;2022-09-25T11:31:39;14.40;99.90
12452;DHT22;6291;48.924;12.204;2022-09-25T11:36:46;14.50;99.90
12452;DHT22;6291;48.924;12.204;2022-09-25T11:41:56;14.80;99.90
12452;DHT22;6291;48.924;12.204;2022-09-25T11:47:07;14.90;99.90
12452;DHT22;6291;48.924;12.204;2022-09-25T11:52:32;14.50;99.90
12452;DHT22;6291;48.924;12.204;2022-09-25T11:57:47;14.70;99.90
12452;DHT22;6291;48.924;12.204;2022-09-25T12:03:09;14.60;99.90
12452;DHT22;6291;48.924;12.204;2022-09-25T12:08:31;14.50;99.90
12452;DHT22;6291;48.924;12.204;2022-09-25T12:13:42;14.60;99.90
12452;DHT22;6291;48.924;12.204;2022-09-25T12:19:16;14.50;99.90
12452;DHT22;6291;48.924;12.204;2022-09-25T12:24:33;14.60;99.90
12452;DHT22;6291;48.924;12.204;2022-09-25T12:29:51;14.70;99.90
12452;DHT22;6291;48.924;12.204;2022-09-25T12:35:08;15.00;99.90
12452;DHT22;6291;48.924;12.204;2022-09-25T12:40:20;15.10;99.90
12452;DHT22;6291;48.924;12.204;2022-09-25T12:45:30;15.00;99.90
12452;DHT22;6291;48.924;12.204;2022-09-25T12:50:41;14.90;99.90
12452;DHT22;6291;48.924;12.204;2022-09-25T12:55:52;15.30;99.90
12452;DHT22;6291;48.924;12.204;2022-09-25T13:01:02;15.70;99.90
12452;DHT22;6291;48.924;12.204;2022-09-25T13:06:10;15.70;99.90
12452;DHT22;6291;48.924;12.204;2022-09-25T13:11:22;15.40;99.90
12452;DHT22;6291;48.924;12.204;2022-09-25T13:16:28;15.00;99.90
12452;DHT22;6291;48.924;12.204;2022-09-25T13:21:34;15.00;99.90
12452;DHT22;6291;48.924;12.204;2022-09-25T13:26:44;15.60;99.90
12452;DHT22;6291;48.924;12.204;2022-09-25T13:31:48;15.40;99.90
12452;DHT22;6291;48.924;12.204;2022-09-25T13:36:55;15.50;99.90
12452;DHT22;6291;48.924;12.204;2022-09-25T13:42:02;15.60;99.90
12452;DHT22;6291;48.924;12.204;2022-09-25T13:47:42;15.80;99.90
12452;DHT22;6291;48.924;12.204;2022-09-25T13:58:26;18.30;99.90
12452;DHT22;6291;48.924;12.204;2022-09-25T14:03:35;18.90;99.90
12452;DHT22;6291;48.924;12.204;2022-09-25T14:08:42;19.60;99.90
12452;DHT22;6291;48.924;12.204;2022-09-25T14:13:46;18.90;99.90
12452;DHT22;6291;48.924;12.204;2022-09-25T14:18:52;17.90;99.90
12452;DHT22;6291;48.924;12.204;2022-09-25T14:24:11;16.00;99.90
12452;DHT22;6291;48.924;12.204;2022-09-25T14:29:21;15.80;99.90
12452;DHT22;6291;48.924;12.204;2022-09-25T14:34:39;15.70;99.90
12452;DHT22;6291;48.924;12.204;2022-09-25T14:39:52;16.40;99.90
12452;DHT22;6291;48.924;12.204;2022-09-25T14:45:20;17.80;99.90
12452;DHT22;6291;48.924;12.204;2022-09-25T14:50:30;20.10;99.90
12452;DHT22;6291;48.924;12.204;2022-09-25T14:55:40;21.60;95.00
12452;DHT22;6291;48.924;12.204;2022-09-25T15:00:49;20.60;93.20
12452;DHT22;6291;48.924;12.204;2022-09-25T15:05:53;21.80;91.80
12452;DHT22;6291;48.924;12.204;2022-09-25T15:11:07;22.40;88.20
12452;DHT22;6291;48.924;12.204;2022-09-25T15:16:14;23.20;82.30
12452;DHT22;6291;48.924;12.204;2022-09-25T15:21:40;24.30;75.60
12452;DHT22;6291;48.924;12.204;2022-09-25T15:26:48;23.30;74.60
12452;DHT22;6291;48.924;12.204;2022-09-25T15:31:52;21.50;82.40
12452;DHT22;6291;48.924;12.204;2022-09-25T15:37:13;21.40;79.90
12452;DHT22;6291;48.924;12.204;2022-09-25T15:42:18;20.90;80.30
12452;DHT22;6291;48.924;12.204;2022-09-25T15:47:50;21.50;79.50
12452;DHT22;6291;48.924;12.204;2022-09-25T15:52:56;20.60;81.80
12452;DHT22;6291;48.924;12.204;2022-09-25T15:58:07;20.00;81.50
12452;DHT22;6291;48.924;12.204;2022-09-25T16:03:16;18.40;87.90
12452;DHT22;6291;48.924;12.204;2022-09-25T16:08:38;17.40;91.00
12452;DHT22;6291;48.924;12.204;2022-09-25T16:13:45;16.50;93.70
12452;DHT22;6291;48.924;12.204;2022-09-25T16:18:49;16.20;96.30
12452;DHT22;6291;48.924;12.204;2022-09-25T16:23:57;15.90;99.80
12452;DHT22;6291;48.924;12.204;2022-09-25T16:29:12;15.60;99.90
12452;DHT22;6291;48.924;12.204;2022-09-25T16:34:19;15.30;99.90
12452;DHT22;6291;48.924;12.204;2022-09-25T16:39:31;15.00;99.90
12452;DHT22;6291;48.924;12.204;2022-09-25T16:44:42;15.00;99.90
12452;DHT22;6291;48.924;12.204;2022-09-25T16:49:48;15.00;99.90
12452;DHT22;6291;48.924;12.204;2022-09-25T16:54:52;14.80;99.90
12452;DHT22;6291;48.924;12.204;2022-09-25T16:59:58;14.70;99.90
12452;DHT22;6291;48.924;12.204;2022-09-25T17:05:04;14.60;99.90
12452;DHT22;6291;48.924;12.204;2022-09-25T17:10:11;14.60;99.90
12452;DHT22;6291;48.924;12.204;2022-09-25T17:15:19;14.50;99.90
12452;DHT22;6291;48.924;12.204;2022-09-25T17:20:25;14.30;99.90
12452;DHT22;6291;48.924;12.204;2022-09-25T17:25:37;14.10;99.90
12452;DHT22;6291;48.924;12.204;2022-09-25T17:30:43;13.90;99.90
12452;DHT22;6291;48.924;12.204;2022-09-25T17:35:49;13.80;99.90
12452;DHT22;6291;48.924;12.204;2022-09-25T17:40:54;13.60;99.90
12452;DHT22;6291;48.924;12.204;2022-09-25T17:46:07;13.50;99.90
12452;DHT22;6291;48.924;12.204;2022-09-25T17:51:13;13.20;99.90
12452;DHT22;6291;48.924;12.204;2022-09-25T17:56:18;15.40;99.90
12452;DHT22;6291;48.924;12.204;2022-09-25T18:01:23;12.90;99.90
12452;DHT22;6291;48.924;12.204;2022-09-25T18:06:29;12.80;99.90
12452;DHT22;6291;48.924;12.204;2022-09-25T18:11:33;12.70;99.90
12452;DHT22;6291;48.924;12.204;2022-09-25T18:16:43;12.70;99.90
12452;DHT22;6291;48.924;12.204;2022-09-25T18:21:49;12.40;99.90
12452;DHT22;6291;48.924;12.204;2022-09-25T18:27:13;12.40;99.90
12452;DHT22;6291;48.924;12.204;2022-09-25T18:32:18;12.40;99.90
12452;DHT22;6291;48.924;12.204;2022-09-25T18:37:21;12.40;99.90
12452;DHT22;6291;48.924;12.204;2022-09-25T18:42:25;12.40;99.90
12452;DHT22;6291;48.924;12.204;2022-09-25T18:47:29;12.40;99.90
12452;DHT22;6291;48.924;12.204;2022-09-25T18:52:33;12.40;99.90
12452;DHT22;6291;48.924;12.204;2022-09-25T18:57:37;12.50;99.90
12452;DHT22;6291;48.924;12.204;2022-09-25T19:02:43;12.70;99.90
12452;DHT22;6291;48.924;12.204;2022-09-25T19:07:46;12.70;99.90
12452;DHT22;6291;48.924;12.204;2022-09-25T19:12:50;12.60;99.90
12452;DHT22;6291;48.924;12.204;2022-09-25T19:17:54;12.50;99.90
12452;DHT22;6291;48.924;12.204;2022-09-25T19:22:58;12.50;99.90
12452;DHT22;6291;48.924;12.204;2022-09-25T19:28:03;12.40;99.90
12452;DHT22;6291;48.924;12.204;2022-09-25T19:33:08;12.50;99.90
12452;DHT22;6291;48.924;12.204;2022-09-25T19:38:11;12.50;99.90
12452;DHT22;6291;48.924;12.204;2022-09-25T19:43:14;12.50;99.90
12452;DHT22;6291;48.924;12.204;2022-09-25T19:48:19;12.60;99.90
12452;DHT22;6291;48.924;12.204;2022-09-25T19:53:22;12.80;99.90
12452;DHT22;6291;48.924;12.204;2022-09-25T19:58:26;12.90;99.90
12452;DHT22;6291;48.924;12.204;2022-09-25T20:03:31;12.90;99.90
12452;DHT22;6291;48.924;12.204;2022-09-25T20:08:34;12.90;99.90
12452;DHT22;6291;48.924;12.204;2022-09-25T20:13:38;12.90;99.90
12452;DHT22;6291;48.924;12.204;2022-09-25T20:18:46;12.70;99.90
12452;DHT22;6291;48.924;12.204;2022-09-25T20:23:50;12.60;99.90
12452;DHT22;6291;48.924;12.204;2022-09-25T20:28:56;12.70;99.90
12452;DHT22;6291;48.924;12.204;2022-09-25T20:34:01;12.70;99.90
12452;DHT22;6291;48.924;12.204;2022-09-25T20:39:04;12.50;99.90
12452;DHT22;6291;48.924;12.204;2022-09-25T20:44:08;12.40;99.90
12452;DHT22;6291;48.924;12.204;2022-09-25T20:49:13;12.50;99.90
12452;DHT22;6291;48.924;12.204;2022-09-25T20:54:18;12.60;99.90
12452;DHT22;6291;48.924;12.204;2022-09-25T20:59:21;12.60;99.90
12452;DHT22;6291;48.924;12.204;2022-09-25T21:04:27;12.60;99.90
12452;DHT22;6291;48.924;12.204;2022-09-25T21:09:33;12.50;99.90
12452;DHT22;6291;48.924;12.204;2022-09-25T21:14:36;12.40;99.90
12452;DHT22;6291;48.924;12.204;2022-09-25T21:19:41;12.40;99.90
12452;DHT22;6291;48.924;12.204;2022-09-25T21:24:44;12.40;99.90
12452;DHT22;6291;48.924;12.204;2022-09-25T21:29:48;12.40;99.90
12452;DHT22;6291;48.924;12.204;2022-09-25T21:34:52;12.30;99.90
12452;DHT22;6291;48.924;12.204;2022-09-25T21:39:55;12.30;99.90
12452;DHT22;6291;48.924;12.204;2022-09-25T21:44:59;12.30;99.90
12452;DHT22;6291;48.924;12.204;2022-09-25T21:50:04;12.30;99.90
12452;DHT22;6291;48.924;12.204;2022-09-25T21:55:08;12.30;99.90
12452;DHT22;6291;48.924;12.204;2022-09-25T22:00:12;12.30;99.90
12452;DHT22;6291;48.924;12.204;2022-09-25T22:05:19;12.30;99.90
12452;DHT22;6291;48.924;12.204;2022-09-25T22:10:23;12.30;99.90
12452;DHT22;6291;48.924;12.204;2022-09-25T22:15:26;12.20;99.90
12452;DHT22;6291;48.924;12.204;2022-09-25T22:20:31;12.20;99.90
12452;DHT22;6291;48.924;12.204;2022-09-25T22:25:34;12.20;99.90
12452;DHT22;6291;48.924;12.204;2022-09-25T22:30:37;12.20;99.90
12452;DHT22;6291;48.924;12.204;2022-09-25T22:35:42;12.20;99.90
12452;DHT22;6291;48.924;12.204;2022-09-25T22:40:45;12.20;99.90
12452;DHT22;6291;48.924;12.204;2022-09-25T22:45:49;12.10;99.90
12452;DHT22;6291;48.924;12.204;2022-09-25T22:50:56;12.00;99.90
12452;DHT22;6291;48.924;12.204;2022-09-25T22:56:07;12.00;99.90
12452;DHT22;6291;48.924;12.204;2022-09-25T23:01:13;11.90;99.90
12452;DHT22;6291;48.924;12.204;2022-09-25T23:06:18;11.90;99.90
12452;DHT22;6291;48.924;12.204;2022-09-25T23:11:22;12.00;99.90
12452;DHT22;6291;48.924;12.204;2022-09-25T23:16:27;11.90;99.90
12452;DHT22;6291;48.924;12.204;2022-09-25T23:21:33;8.80;99.90
12452;DHT22;6291;48.924;12.204;2022-09-25T23:26:36;11.80;99.90
12452;DHT22;6291;48.924;12.204;2022-09-25T23:31:40;9.50;99.90
12452;DHT22;6291;48.924;12.204;2022-09-25T23:36:45;11.80;99.90
12452;DHT22;6291;48.924;12.204;2022-09-25T23:41:48;11.90;99.90
12452;DHT22;6291;48.924;12.204;2022-09-25T23:46:52;11.80;99.90
12452;DHT22;6291;48.924;12.204;2022-09-25T23:51:56;11.70;99.90
12452;DHT22;6291;48.924;12.204;2022-09-25T23:57:00;11.70;99.90
